Tropical Cyclones
[Index]
Main Index Home Page Stock Weather Photos Extreme Storms Discussion Storm News and Storm Chasing Reports Tropical Cyclones / Hurricanes / Typhoons Weather Data and Links Wild Fires / Bushfires Weather Observation Techniques Weather Picture Catalogue Tornado Pictures and Reports Stock Video Footage and DVDs for sale
Season 1980-1981 Tropical Cyclone MABEL Track Map
Season 1980-1981 Summaries: [BoM-AU] [JTWC-AU] [JTWC-SIO] [JTWC-SPAC] [JTWC-SH]
<<- Previous TC | JTWC 1980-1981 Season | Next TC ->>

click for intensity scale information  Lat/long Grid: Show Hide

 Date Labels: Show Hide

Joint Typhoon Warning Centre Cyclone Data

Name: MABEL

12 Jan 1981 06:00 UTC to 21 Jan 1981 06:00 UTC

    date/time    lat    long     hPa   cat  kts
1981-01-12 06   12.3   110.4                  20          
1981-01-12 12   12.5   111.3                  20          
1981-01-12 18   12.8   112.3                  25          
1981-01-13 00   13.0   113.2                  25          
1981-01-13 06   13.3   114.2                  30          
1981-01-13 12   13.6   115.1                  30          
1981-01-13 18   14.0   115.8                  30          
1981-01-14 00   14.2   116.3                  35          
1981-01-14 06   14.5   116.6            1     45          
1981-01-14 12   14.9   116.9            1     50          
1981-01-14 18   15.3   117.1            1     50          
1981-01-15 00   15.7   117.2            1     50          
1981-01-15 06   16.2   117.3            1     50          
1981-01-15 12   16.7   117.3            1     50          
1981-01-15 18   17.2   117.3            1     50          
1981-01-16 00   17.6   117.2            1     50          
1981-01-16 06   17.9   117.0            1     50          
1981-01-16 12   18.1   116.7            2     55          
1981-01-16 18   18.3   116.4            2     60          
1981-01-17 00   18.2   116.1            2     65          
1981-01-17 06   18.1   115.8            2     70          
1981-01-17 12   18.3   115.4            3     75          
1981-01-17 18   18.6   115.0            3     85          
1981-01-18 00   19.1   114.6            3     90          
1981-01-18 06   19.7   114.1            3     95          
1981-01-18 12   20.4   113.5            4    100          
1981-01-18 18   21.3   112.8            4    100          
1981-01-19 00   22.4   112.3            3     95          
1981-01-19 06   23.5   112.0            3     90          
1981-01-19 12   24.1   111.9            3     75          
1981-01-19 18   24.6   111.8            2     65          
1981-01-20 00   25.1   111.3            2     60          
1981-01-20 06   25.4   110.8            2     55          
1981-01-20 12   25.5   110.4            1     45          
1981-01-20 18   25.6   109.9            1     40          
1981-01-21 00   25.7   109.4                  35          
1981-01-21 06   25.7   108.8                  30          
Winds are 1-min average.

Tropical cyclone tracks developed by Michael Bath using data from the Joint Typhoon Warning Centre Best Tracks and Google Maps.


[Australian Severe Weather index] [Copyright Notice] [Email Contacts] [Search This Site] [Privacy Policy]
Document: tropical_cyclone_mabel.htm Updated: 18 September 2016